sensor_id;sensor_type;location;lat;lon;timestamp;temperature;humidity
19044;DHT22;9654;52.302;8.120;2022-09-19T00:01:13;9.80;99.90
19044;DHT22;9654;52.302;8.120;2022-09-19T00:03:41;9.80;99.90
19044;DHT22;9654;52.302;8.120;2022-09-19T00:06:09;9.90;99.90
19044;DHT22;9654;52.302;8.120;2022-09-19T00:08:39;9.90;99.90
19044;DHT22;9654;52.302;8.120;2022-09-19T00:11:06;9.90;99.90
19044;DHT22;9654;52.302;8.120;2022-09-19T00:13:35;9.90;99.90
19044;DHT22;9654;52.302;8.120;2022-09-19T00:16:03;9.90;99.90
19044;DHT22;9654;52.302;8.120;2022-09-19T00:18:30;9.90;99.90
19044;DHT22;9654;52.302;8.120;2022-09-19T00:20:57;9.90;99.90
19044;DHT22;9654;52.302;8.120;2022-09-19T00:23:25;9.90;99.90
19044;DHT22;9654;52.302;8.120;2022-09-19T00:26:12;9.90;99.90
19044;DHT22;9654;52.302;8.120;2022-09-19T00:28:43;9.90;99.90
19044;DHT22;9654;52.302;8.120;2022-09-19T00:31:14;10.00;99.90
19044;DHT22;9654;52.302;8.120;2022-09-19T00:33:43;9.90;99.90
19044;DHT22;9654;52.302;8.120;2022-09-19T00:36:10;10.00;99.90
19044;DHT22;9654;52.302;8.120;2022-09-19T00:38:37;10.00;99.90
19044;DHT22;9654;52.302;8.120;2022-09-19T00:41:04;10.00;99.90
19044;DHT22;9654;52.302;8.120;2022-09-19T00:43:46;10.00;99.90
19044;DHT22;9654;52.302;8.120;2022-09-19T00:46:13;10.00;99.90
19044;DHT22;9654;52.302;8.120;2022-09-19T00:48:40;10.10;99.90
19044;DHT22;9654;52.302;8.120;2022-09-19T00:51:09;10.00;99.90
19044;DHT22;9654;52.302;8.120;2022-09-19T00:53:37;10.10;99.90
19044;DHT22;9654;52.302;8.120;2022-09-19T00:56:05;10.00;99.90
19044;DHT22;9654;52.302;8.120;2022-09-19T00:58:34;10.10;99.90
19044;DHT22;9654;52.302;8.120;2022-09-19T01:01:02;10.10;99.90
19044;DHT22;9654;52.302;8.120;2022-09-19T01:03:30;10.10;99.90
19044;DHT22;9654;52.302;8.120;2022-09-19T01:06:05;10.10;99.90
19044;DHT22;9654;52.302;8.120;2022-09-19T01:08:55;10.10;99.90
19044;DHT22;9654;52.302;8.120;2022-09-19T01:11:38;10.10;99.90
19044;DHT22;9654;52.302;8.120;2022-09-19T01:14:16;10.10;99.90
19044;DHT22;9654;52.302;8.120;2022-09-19T01:16:56;10.10;99.90
19044;DHT22;9654;52.302;8.120;2022-09-19T01:19:46;10.10;99.90
19044;DHT22;9654;52.302;8.120;2022-09-19T01:22:21;10.10;99.90
19044;DHT22;9654;52.302;8.120;2022-09-19T01:24:56;10.10;99.90
19044;DHT22;9654;52.302;8.120;2022-09-19T01:27:41;10.10;99.90
19044;DHT22;9654;52.302;8.120;2022-09-19T01:30:12;10.10;99.90
19044;DHT22;9654;52.302;8.120;2022-09-19T01:32:42;10.10;99.90
19044;DHT22;9654;52.302;8.120;2022-09-19T01:35:20;10.10;99.90
19044;DHT22;9654;52.302;8.120;2022-09-19T01:37:53;10.10;99.90
19044;DHT22;9654;52.302;8.120;2022-09-19T01:40:22;10.10;99.90
19044;DHT22;9654;52.302;8.120;2022-09-19T01:42:50;10.10;99.90
19044;DHT22;9654;52.302;8.120;2022-09-19T01:45:24;10.10;99.90
19044;DHT22;9654;52.302;8.120;2022-09-19T01:48:00;10.10;99.90
19044;DHT22;9654;52.302;8.120;2022-09-19T01:50:41;10.10;99.90
19044;DHT22;9654;52.302;8.120;2022-09-19T01:53:21;10.10;99.90
19044;DHT22;9654;52.302;8.120;2022-09-19T01:55:55;10.10;99.90
19044;DHT22;9654;52.302;8.120;2022-09-19T01:58:26;10.20;99.90
19044;DHT22;9654;52.302;8.120;2022-09-19T02:01:03;10.10;99.90
19044;DHT22;9654;52.302;8.120;2022-09-19T02:03:35;10.10;99.90
19044;DHT22;9654;52.302;8.120;2022-09-19T02:06:10;10.10;99.90
19044;DHT22;9654;52.302;8.120;2022-09-19T02:08:50;10.10;99.90
19044;DHT22;9654;52.302;8.120;2022-09-19T02:11:20;10.10;99.90
19044;DHT22;9654;52.302;8.120;2022-09-19T02:13:51;10.10;99.90
19044;DHT22;9654;52.302;8.120;2022-09-19T02:16:24;10.10;99.90
19044;DHT22;9654;52.302;8.120;2022-09-19T02:18:56;10.10;99.90
19044;DHT22;9654;52.302;8.120;2022-09-19T02:21:28;10.10;99.90
19044;DHT22;9654;52.302;8.120;2022-09-19T02:23:57;10.10;99.90
19044;DHT22;9654;52.302;8.120;2022-09-19T02:26:32;10.10;99.90
19044;DHT22;9654;52.302;8.120;2022-09-19T02:29:02;10.10;99.90
19044;DHT22;9654;52.302;8.120;2022-09-19T02:31:31;10.10;99.90
19044;DHT22;9654;52.302;8.120;2022-09-19T02:34:00;10.10;99.90
19044;DHT22;9654;52.302;8.120;2022-09-19T02:36:33;10.10;99.90
19044;DHT22;9654;52.302;8.120;2022-09-19T02:39:04;10.10;99.90
19044;DHT22;9654;52.302;8.120;2022-09-19T02:41:36;10.10;99.90
19044;DHT22;9654;52.302;8.120;2022-09-19T02:44:11;10.00;99.90
19044;DHT22;9654;52.302;8.120;2022-09-19T02:46:47;10.00;99.90
19044;DHT22;9654;52.302;8.120;2022-09-19T02:49:18;10.00;99.90
19044;DHT22;9654;52.302;8.120;2022-09-19T02:51:50;10.10;99.90
19044;DHT22;9654;52.302;8.120;2022-09-19T02:54:22;10.10;99.90
19044;DHT22;9654;52.302;8.120;2022-09-19T02:56:53;10.10;99.90
19044;DHT22;9654;52.302;8.120;2022-09-19T02:59:23;10.10;99.90
19044;DHT22;9654;52.302;8.120;2022-09-19T03:01:56;10.10;99.90
19044;DHT22;9654;52.302;8.120;2022-09-19T03:04:28;10.10;99.90
19044;DHT22;9654;52.302;8.120;2022-09-19T03:06:58;10.10;99.90
19044;DHT22;9654;52.302;8.120;2022-09-19T03:09:29;10.20;99.90
19044;DHT22;9654;52.302;8.120;2022-09-19T03:12:00;10.20;99.90
19044;DHT22;9654;52.302;8.120;2022-09-19T03:14:29;10.20;99.90
19044;DHT22;9654;52.302;8.120;2022-09-19T03:17:00;10.20;99.90
19044;DHT22;9654;52.302;8.120;2022-09-19T03:19:28;10.20;99.90
19044;DHT22;9654;52.302;8.120;2022-09-19T03:21:56;10.30;99.90
19044;DHT22;9654;52.302;8.120;2022-09-19T03:24:24;10.30;99.90
19044;DHT22;9654;52.302;8.120;2022-09-19T03:26:51;10.20;99.90
19044;DHT22;9654;52.302;8.120;2022-09-19T03:29:18;10.30;99.90
19044;DHT22;9654;52.302;8.120;2022-09-19T03:31:45;10.20;99.90
19044;DHT22;9654;52.302;8.120;2022-09-19T03:34:14;10.30;99.90
19044;DHT22;9654;52.302;8.120;2022-09-19T03:36:43;10.20;99.90
19044;DHT22;9654;52.302;8.120;2022-09-19T03:39:10;10.30;99.90
19044;DHT22;9654;52.302;8.120;2022-09-19T03:41:37;10.30;99.90
19044;DHT22;9654;52.302;8.120;2022-09-19T03:44:04;10.30;99.90
19044;DHT22;9654;52.302;8.120;2022-09-19T03:46:31;10.20;99.90
19044;DHT22;9654;52.302;8.120;2022-09-19T03:48:59;10.20;99.90
19044;DHT22;9654;52.302;8.120;2022-09-19T03:51:28;10.30;99.90
19044;DHT22;9654;52.302;8.120;2022-09-19T03:53:55;10.20;99.90
19044;DHT22;9654;52.302;8.120;2022-09-19T03:56:22;10.20;99.90
19044;DHT22;9654;52.302;8.120;2022-09-19T03:58:49;10.20;99.90
19044;DHT22;9654;52.302;8.120;2022-09-19T04:01:16;10.20;99.90
19044;DHT22;9654;52.302;8.120;2022-09-19T04:03:42;10.30;99.90
19044;DHT22;9654;52.302;8.120;2022-09-19T04:06:10;10.30;99.90
19044;DHT22;9654;52.302;8.120;2022-09-19T04:08:38;10.30;99.90
19044;DHT22;9654;52.302;8.120;2022-09-19T04:11:06;10.30;99.90
19044;DHT22;9654;52.302;8.120;2022-09-19T04:13:33;10.20;99.90
19044;DHT22;9654;52.302;8.120;2022-09-19T04:16:01;10.20;99.90
19044;DHT22;9654;52.302;8.120;2022-09-19T04:18:29;10.30;99.90
19044;DHT22;9654;52.302;8.120;2022-09-19T04:20:56;10.30;99.90
19044;DHT22;9654;52.302;8.120;2022-09-19T04:23:23;10.30;99.90
19044;DHT22;9654;52.302;8.120;2022-09-19T04:25:53;10.30;99.90
19044;DHT22;9654;52.302;8.120;2022-09-19T04:28:21;10.30;99.90
19044;DHT22;9654;52.302;8.120;2022-09-19T04:30:48;10.30;99.90
19044;DHT22;9654;52.302;8.120;2022-09-19T04:33:15;10.30;99.90
19044;DHT22;9654;52.302;8.120;2022-09-19T04:35:43;10.30;99.90
19044;DHT22;9654;52.302;8.120;2022-09-19T04:38:12;10.30;99.90
19044;DHT22;9654;52.302;8.120;2022-09-19T04:40:39;10.30;99.90
19044;DHT22;9654;52.302;8.120;2022-09-19T04:43:08;10.30;99.90
19044;DHT22;9654;52.302;8.120;2022-09-19T04:45:36;10.30;99.90
19044;DHT22;9654;52.302;8.120;2022-09-19T04:48:05;10.30;99.90
19044;DHT22;9654;52.302;8.120;2022-09-19T04:50:32;10.30;99.90
19044;DHT22;9654;52.302;8.120;2022-09-19T04:52:59;10.40;99.90
19044;DHT22;9654;52.302;8.120;2022-09-19T04:55:27;10.40;99.90
19044;DHT22;9654;52.302;8.120;2022-09-19T04:57:53;10.40;99.90
19044;DHT22;9654;52.302;8.120;2022-09-19T05:00:22;10.40;99.90
19044;DHT22;9654;52.302;8.120;2022-09-19T05:03:18;10.40;99.90
19044;DHT22;9654;52.302;8.120;2022-09-19T05:05:47;10.50;99.90
19044;DHT22;9654;52.302;8.120;2022-09-19T05:08:18;10.50;99.90
19044;DHT22;9654;52.302;8.120;2022-09-19T05:10:46;10.50;99.90
19044;DHT22;9654;52.302;8.120;2022-09-19T05:13:13;10.50;99.90
19044;DHT22;9654;52.302;8.120;2022-09-19T05:15:40;10.50;99.90
19044;DHT22;9654;52.302;8.120;2022-09-19T05:18:09;10.50;99.90
19044;DHT22;9654;52.302;8.120;2022-09-19T05:20:38;10.50;99.90
19044;DHT22;9654;52.302;8.120;2022-09-19T05:23:05;10.50;99.90
19044;DHT22;9654;52.302;8.120;2022-09-19T05:25:36;10.60;99.90
19044;DHT22;9654;52.302;8.120;2022-09-19T05:28:03;10.60;99.90
19044;DHT22;9654;52.302;8.120;2022-09-19T05:30:32;10.60;99.90
19044;DHT22;9654;52.302;8.120;2022-09-19T05:32:59;10.60;99.90
19044;DHT22;9654;52.302;8.120;2022-09-19T05:35:27;10.60;99.90
19044;DHT22;9654;52.302;8.120;2022-09-19T05:37:56;10.70;99.90
19044;DHT22;9654;52.302;8.120;2022-09-19T05:40:23;10.70;99.90
19044;DHT22;9654;52.302;8.120;2022-09-19T05:42:50;10.70;99.90
19044;DHT22;9654;52.302;8.120;2022-09-19T05:45:19;10.70;99.90
19044;DHT22;9654;52.302;8.120;2022-09-19T05:47:48;10.70;99.90
19044;DHT22;9654;52.302;8.120;2022-09-19T05:50:16;10.80;99.90
19044;DHT22;9654;52.302;8.120;2022-09-19T05:52:42;10.80;99.90
19044;DHT22;9654;52.302;8.120;2022-09-19T05:55:28;10.90;99.90
19044;DHT22;9654;52.302;8.120;2022-09-19T05:57:56;10.90;99.90
19044;DHT22;9654;52.302;8.120;2022-09-19T06:00:25;10.90;99.90
19044;DHT22;9654;52.302;8.120;2022-09-19T06:02:53;11.00;99.90
19044;DHT22;9654;52.302;8.120;2022-09-19T06:05:20;11.10;99.90
19044;DHT22;9654;52.302;8.120;2022-09-19T06:07:47;11.00;99.90
19044;DHT22;9654;52.302;8.120;2022-09-19T06:10:14;11.10;99.90
19044;DHT22;9654;52.302;8.120;2022-09-19T06:12:42;11.10;99.90
19044;DHT22;9654;52.302;8.120;2022-09-19T06:15:10;11.10;99.90
19044;DHT22;9654;52.302;8.120;2022-09-19T06:17:37;11.20;99.90
19044;DHT22;9654;52.302;8.120;2022-09-19T06:20:04;11.20;99.90
19044;DHT22;9654;52.302;8.120;2022-09-19T06:22:31;11.20;99.90
19044;DHT22;9654;52.302;8.120;2022-09-19T06:24:58;11.10;99.90
19044;DHT22;9654;52.302;8.120;2022-09-19T06:27:26;11.20;99.90
19044;DHT22;9654;52.302;8.120;2022-09-19T06:29:55;11.30;99.90
19044;DHT22;9654;52.302;8.120;2022-09-19T06:32:24;11.30;99.90
19044;DHT22;9654;52.302;8.120;2022-09-19T06:34:50;11.40;99.90
19044;DHT22;9654;52.302;8.120;2022-09-19T06:37:17;11.40;99.90
19044;DHT22;9654;52.302;8.120;2022-09-19T06:39:44;11.40;99.90
19044;DHT22;9654;52.302;8.120;2022-09-19T06:42:10;11.40;99.90
19044;DHT22;9654;52.302;8.120;2022-09-19T06:44:37;11.40;99.90
19044;DHT22;9654;52.302;8.120;2022-09-19T06:47:05;11.40;99.90
19044;DHT22;9654;52.302;8.120;2022-09-19T06:49:32;11.40;99.90
19044;DHT22;9654;52.302;8.120;2022-09-19T06:51:59;11.40;99.90
19044;DHT22;9654;52.302;8.120;2022-09-19T06:54:26;11.50;99.90
19044;DHT22;9654;52.302;8.120;2022-09-19T06:56:53;11.50;99.90
19044;DHT22;9654;52.302;8.120;2022-09-19T06:59:19;11.60;99.90
19044;DHT22;9654;52.302;8.120;2022-09-19T07:01:47;11.70;99.90
19044;DHT22;9654;52.302;8.120;2022-09-19T07:04:16;11.80;99.90
19044;DHT22;9654;52.302;8.120;2022-09-19T07:06:44;11.90;99.90
19044;DHT22;9654;52.302;8.120;2022-09-19T07:09:10;12.00;99.90
19044;DHT22;9654;52.302;8.120;2022-09-19T07:11:37;12.10;99.90
19044;DHT22;9654;52.302;8.120;2022-09-19T07:14:04;12.10;99.90
19044;DHT22;9654;52.302;8.120;2022-09-19T07:16:31;12.20;99.90
19044;DHT22;9654;52.302;8.120;2022-09-19T07:18:58;12.20;99.90
19044;DHT22;9654;52.302;8.120;2022-09-19T07:21:26;12.30;99.90
19044;DHT22;9654;52.302;8.120;2022-09-19T07:23:53;12.20;99.90
19044;DHT22;9654;52.302;8.120;2022-09-19T07:26:20;12.20;99.90
19044;DHT22;9654;52.302;8.120;2022-09-19T07:28:48;12.20;99.90
19044;DHT22;9654;52.302;8.120;2022-09-19T07:31:14;12.30;99.90
19044;DHT22;9654;52.302;8.120;2022-09-19T07:33:41;12.30;99.90
19044;DHT22;9654;52.302;8.120;2022-09-19T07:36:08;12.40;99.90
19044;DHT22;9654;52.302;8.120;2022-09-19T07:38:38;12.40;99.90
19044;DHT22;9654;52.302;8.120;2022-09-19T07:41:05;12.40;99.90
19044;DHT22;9654;52.302;8.120;2022-09-19T07:43:32;12.30;99.90
19044;DHT22;9654;52.302;8.120;2022-09-19T07:45:59;12.30;99.90
19044;DHT22;9654;52.302;8.120;2022-09-19T07:48:26;12.30;99.90
19044;DHT22;9654;52.302;8.120;2022-09-19T07:50:52;12.20;99.90
19044;DHT22;9654;52.302;8.120;2022-09-19T07:53:21;12.20;99.90
19044;DHT22;9654;52.302;8.120;2022-09-19T07:55:50;12.20;99.90
19044;DHT22;9654;52.302;8.120;2022-09-19T07:58:19;12.20;99.90
19044;DHT22;9654;52.302;8.120;2022-09-19T08:00:46;12.30;99.90
19044;DHT22;9654;52.302;8.120;2022-09-19T08:03:15;12.40;99.90
19044;DHT22;9654;52.302;8.120;2022-09-19T08:05:44;12.50;99.90
19044;DHT22;9654;52.302;8.120;2022-09-19T08:08:12;12.50;99.90
19044;DHT22;9654;52.302;8.120;2022-09-19T08:10:40;12.60;99.90
19044;DHT22;9654;52.302;8.120;2022-09-19T08:13:10;12.70;99.90
19044;DHT22;9654;52.302;8.120;2022-09-19T08:15:38;12.90;99.90
19044;DHT22;9654;52.302;8.120;2022-09-19T08:18:06;13.00;99.90
19044;DHT22;9654;52.302;8.120;2022-09-19T08:20:35;13.10;99.90
19044;DHT22;9654;52.302;8.120;2022-09-19T08:23:04;13.10;99.90
19044;DHT22;9654;52.302;8.120;2022-09-19T08:25:33;13.20;99.90
19044;DHT22;9654;52.302;8.120;2022-09-19T08:28:00;13.20;99.90
19044;DHT22;9654;52.302;8.120;2022-09-19T08:30:31;13.30;99.90
19044;DHT22;9654;52.302;8.120;2022-09-19T08:32:59;13.30;99.90
19044;DHT22;9654;52.302;8.120;2022-09-19T08:35:27;13.40;99.90
19044;DHT22;9654;52.302;8.120;2022-09-19T08:37:56;13.50;99.90
19044;DHT22;9654;52.302;8.120;2022-09-19T08:40:25;13.50;99.90
19044;DHT22;9654;52.302;8.120;2022-09-19T08:43:00;13.50;99.90
19044;DHT22;9654;52.302;8.120;2022-09-19T08:45:40;13.50;99.90
19044;DHT22;9654;52.302;8.120;2022-09-19T08:48:11;13.60;99.90
19044;DHT22;9654;52.302;8.120;2022-09-19T08:50:43;13.80;99.90
19044;DHT22;9654;52.302;8.120;2022-09-19T08:53:22;14.00;99.90
19044;DHT22;9654;52.302;8.120;2022-09-19T08:55:52;14.30;99.90
19044;DHT22;9654;52.302;8.120;2022-09-19T08:58:22;14.60;99.90
19044;DHT22;9654;52.302;8.120;2022-09-19T09:00:52;14.70;99.90
19044;DHT22;9654;52.302;8.120;2022-09-19T09:03:24;14.70;99.90
19044;DHT22;9654;52.302;8.120;2022-09-19T09:06:01;14.70;99.90
19044;DHT22;9654;52.302;8.120;2022-09-19T09:08:39;14.70;99.90
19044;DHT22;9654;52.302;8.120;2022-09-19T09:11:14;14.60;99.90
19044;DHT22;9654;52.302;8.120;2022-09-19T09:13:51;14.40;99.90
19044;DHT22;9654;52.302;8.120;2022-09-19T09:16:33;14.60;99.90
19044;DHT22;9654;52.302;8.120;2022-09-19T09:19:20;14.70;99.90
19044;DHT22;9654;52.302;8.120;2022-09-19T09:21:55;14.80;99.90
19044;DHT22;9654;52.302;8.120;2022-09-19T09:24:28;14.90;99.90
19044;DHT22;9654;52.302;8.120;2022-09-19T09:26:58;14.90;99.90
19044;DHT22;9654;52.302;8.120;2022-09-19T09:29:30;14.90;99.90
19044;DHT22;9654;52.302;8.120;2022-09-19T09:32:01;15.00;99.90
19044;DHT22;9654;52.302;8.120;2022-09-19T09:34:36;15.20;99.90
19044;DHT22;9654;52.302;8.120;2022-09-19T09:37:13;15.20;99.90
19044;DHT22;9654;52.302;8.120;2022-09-19T09:39:46;15.20;99.90
19044;DHT22;9654;52.302;8.120;2022-09-19T09:42:29;15.30;99.90
19044;DHT22;9654;52.302;8.120;2022-09-19T09:45:02;15.10;99.90
19044;DHT22;9654;52.302;8.120;2022-09-19T09:47:39;15.10;99.90
19044;DHT22;9654;52.302;8.120;2022-09-19T09:50:26;15.00;99.90
19044;DHT22;9654;52.302;8.120;2022-09-19T09:53:02;14.80;99.90
19044;DHT22;9654;52.302;8.120;2022-09-19T09:55:38;14.60;99.90
19044;DHT22;9654;52.302;8.120;2022-09-19T09:58:27;14.60;99.90
19044;DHT22;9654;52.302;8.120;2022-09-19T10:01:09;14.70;99.90
19044;DHT22;9654;52.302;8.120;2022-09-19T10:04:01;14.60;99.90
19044;DHT22;9654;52.302;8.120;2022-09-19T10:06:37;14.80;99.90
19044;DHT22;9654;52.302;8.120;2022-09-19T10:09:09;14.80;99.90
19044;DHT22;9654;52.302;8.120;2022-09-19T10:11:41;14.60;99.90
19044;DHT22;9654;52.302;8.120;2022-09-19T10:14:14;14.50;99.90
19044;DHT22;9654;52.302;8.120;2022-09-19T10:16:44;14.50;99.90
19044;DHT22;9654;52.302;8.120;2022-09-19T10:19:24;14.70;99.90
19044;DHT22;9654;52.302;8.120;2022-09-19T10:21:53;15.00;99.90
19044;DHT22;9654;52.302;8.120;2022-09-19T10:24:43;15.40;99.90
19044;DHT22;9654;52.302;8.120;2022-09-19T10:27:11;15.90;99.90
19044;DHT22;9654;52.302;8.120;2022-09-19T10:29:48;16.30;99.90
19044;DHT22;9654;52.302;8.120;2022-09-19T10:32:16;16.30;99.90
19044;DHT22;9654;52.302;8.120;2022-09-19T10:34:46;16.30;99.90
19044;DHT22;9654;52.302;8.120;2022-09-19T10:37:16;16.30;99.90
19044;DHT22;9654;52.302;8.120;2022-09-19T10:39:45;16.40;99.90
19044;DHT22;9654;52.302;8.120;2022-09-19T10:42:34;16.40;99.90
19044;DHT22;9654;52.302;8.120;2022-09-19T10:45:17;16.70;99.90
19044;DHT22;9654;52.302;8.120;2022-09-19T10:47:45;16.80;99.90
19044;DHT22;9654;52.302;8.120;2022-09-19T10:50:16;16.90;99.90
19044;DHT22;9654;52.302;8.120;2022-09-19T10:52:45;16.80;99.90
19044;DHT22;9654;52.302;8.120;2022-09-19T10:55:16;16.40;99.90
19044;DHT22;9654;52.302;8.120;2022-09-19T10:57:49;16.00;99.90
19044;DHT22;9654;52.302;8.120;2022-09-19T11:00:21;15.30;99.90
19044;DHT22;9654;52.302;8.120;2022-09-19T11:02:55;14.60;99.90
19044;DHT22;9654;52.302;8.120;2022-09-19T11:05:25;14.20;99.90
19044;DHT22;9654;52.302;8.120;2022-09-19T11:07:53;14.00;99.90
19044;DHT22;9654;52.302;8.120;2022-09-19T11:10:34;13.90;99.90
19044;DHT22;9654;52.302;8.120;2022-09-19T11:13:09;13.80;99.90
19044;DHT22;9654;52.302;8.120;2022-09-19T11:15:46;13.60;99.90
19044;DHT22;9654;52.302;8.120;2022-09-19T11:18:25;13.60;99.90
19044;DHT22;9654;52.302;8.120;2022-09-19T11:21:06;13.40;99.90
19044;DHT22;9654;52.302;8.120;2022-09-19T11:23:54;13.20;99.90
19044;DHT22;9654;52.302;8.120;2022-09-19T11:26:30;13.00;99.90
19044;DHT22;9654;52.302;8.120;2022-09-19T11:29:13;12.80;99.90
19044;DHT22;9654;52.302;8.120;2022-09-19T11:31:51;12.80;99.90
19044;DHT22;9654;52.302;8.120;2022-09-19T11:34:35;12.90;99.90
19044;DHT22;9654;52.302;8.120;2022-09-19T11:37:16;13.00;99.90
19044;DHT22;9654;52.302;8.120;2022-09-19T11:39:59;13.30;99.90
19044;DHT22;9654;52.302;8.120;2022-09-19T11:42:37;13.60;99.90
19044;DHT22;9654;52.302;8.120;2022-09-19T11:45:13;14.00;99.90
19044;DHT22;9654;52.302;8.120;2022-09-19T11:47:59;14.10;99.90
19044;DHT22;9654;52.302;8.120;2022-09-19T11:51:04;14.20;99.90
19044;DHT22;9654;52.302;8.120;2022-09-19T11:59:37;13.60;99.90
19044;DHT22;9654;52.302;8.120;2022-09-19T12:02:22;13.30;99.90
19044;DHT22;9654;52.302;8.120;2022-09-19T12:05:01;12.90;99.90
19044;DHT22;9654;52.302;8.120;2022-09-19T12:07:33;12.70;99.90
19044;DHT22;9654;52.302;8.120;2022-09-19T12:10:13;12.70;99.90
19044;DHT22;9654;52.302;8.120;2022-09-19T12:12:42;12.70;99.90
19044;DHT22;9654;52.302;8.120;2022-09-19T12:15:17;12.80;99.90
19044;DHT22;9654;52.302;8.120;2022-09-19T12:17:53;13.00;99.90
19044;DHT22;9654;52.302;8.120;2022-09-19T12:20:25;13.20;99.90
19044;DHT22;9654;52.302;8.120;2022-09-19T12:22:59;13.40;99.90
19044;DHT22;9654;52.302;8.120;2022-09-19T12:25:50;13.70;99.90
19044;DHT22;9654;52.302;8.120;2022-09-19T12:28:19;14.00;99.90
19044;DHT22;9654;52.302;8.120;2022-09-19T12:30:51;14.20;99.90
19044;DHT22;9654;52.302;8.120;2022-09-19T12:33:27;14.30;99.90
19044;DHT22;9654;52.302;8.120;2022-09-19T12:36:01;14.20;99.90
19044;DHT22;9654;52.302;8.120;2022-09-19T12:38:34;14.10;99.90
19044;DHT22;9654;52.302;8.120;2022-09-19T12:41:10;14.00;99.90
19044;DHT22;9654;52.302;8.120;2022-09-19T12:43:44;13.80;99.90
19044;DHT22;9654;52.302;8.120;2022-09-19T12:46:25;13.60;99.90
19044;DHT22;9654;52.302;8.120;2022-09-19T12:49:00;13.50;99.90
19044;DHT22;9654;52.302;8.120;2022-09-19T12:51:39;13.50;99.90
19044;DHT22;9654;52.302;8.120;2022-09-19T12:54:14;13.30;99.90
19044;DHT22;9654;52.302;8.120;2022-09-19T12:56:48;13.20;99.90
19044;DHT22;9654;52.302;8.120;2022-09-19T12:59:19;13.20;99.90
19044;DHT22;9654;52.302;8.120;2022-09-19T13:01:48;13.10;99.90
19044;DHT22;9654;52.302;8.120;2022-09-19T13:04:26;13.00;99.90
19044;DHT22;9654;52.302;8.120;2022-09-19T13:06:59;13.10;99.90
19044;DHT22;9654;52.302;8.120;2022-09-19T13:09:30;13.60;99.90
19044;DHT22;9654;52.302;8.120;2022-09-19T13:12:05;14.00;99.90
19044;DHT22;9654;52.302;8.120;2022-09-19T13:14:44;14.50;99.90
19044;DHT22;9654;52.302;8.120;2022-09-19T13:17:12;14.80;99.90
19044;DHT22;9654;52.302;8.120;2022-09-19T13:19:57;14.80;99.90
19044;DHT22;9654;52.302;8.120;2022-09-19T13:22:46;15.10;99.90
19044;DHT22;9654;52.302;8.120;2022-09-19T13:25:31;15.50;99.90
19044;DHT22;9654;52.302;8.120;2022-09-19T13:28:25;15.70;99.90
19044;DHT22;9654;52.302;8.120;2022-09-19T13:31:00;15.70;99.90
19044;DHT22;9654;52.302;8.120;2022-09-19T13:33:42;15.90;99.90
19044;DHT22;9654;52.302;8.120;2022-09-19T13:36:12;16.00;99.90
19044;DHT22;9654;52.302;8.120;2022-09-19T13:38:40;16.20;99.90
19044;DHT22;9654;52.302;8.120;2022-09-19T13:41:12;16.30;99.90
19044;DHT22;9654;52.302;8.120;2022-09-19T13:44:03;16.50;99.90
19044;DHT22;9654;52.302;8.120;2022-09-19T13:46:37;16.80;99.90
19044;DHT22;9654;52.302;8.120;2022-09-19T13:49:14;16.80;99.90
19044;DHT22;9654;52.302;8.120;2022-09-19T13:51:45;16.60;99.90
19044;DHT22;9654;52.302;8.120;2022-09-19T13:54:58;16.60;99.90
19044;DHT22;9654;52.302;8.120;2022-09-19T13:57:28;16.60;99.90
19044;DHT22;9654;52.302;8.120;2022-09-19T13:59:58;16.40;99.90
19044;DHT22;9654;52.302;8.120;2022-09-19T14:02:28;16.20;99.90
19044;DHT22;9654;52.302;8.120;2022-09-19T14:05:03;15.90;99.90
19044;DHT22;9654;52.302;8.120;2022-09-19T14:07:36;15.50;99.90
19044;DHT22;9654;52.302;8.120;2022-09-19T14:10:17;15.10;99.90
19044;DHT22;9654;52.302;8.120;2022-09-19T14:12:52;15.00;99.90
19044;DHT22;9654;52.302;8.120;2022-09-19T14:18:52;14.70;99.90
19044;DHT22;9654;52.302;8.120;2022-09-19T14:21:56;14.70;99.90
19044;DHT22;9654;52.302;8.120;2022-09-19T14:24:46;14.80;99.90
19044;DHT22;9654;52.302;8.120;2022-09-19T14:30:48;15.40;99.90
19044;DHT22;9654;52.302;8.120;2022-09-19T14:36:32;15.70;99.90
19044;DHT22;9654;52.302;8.120;2022-09-19T14:39:16;15.70;99.90
19044;DHT22;9654;52.302;8.120;2022-09-19T14:41:53;15.40;99.90
19044;DHT22;9654;52.302;8.120;2022-09-19T14:47:19;14.90;99.90
19044;DHT22;9654;52.302;8.120;2022-09-19T14:49:53;14.60;99.90
19044;DHT22;9654;52.302;8.120;2022-09-19T14:52:25;14.30;99.90
19044;DHT22;9654;52.302;8.120;2022-09-19T14:54:56;14.20;99.90
19044;DHT22;9654;52.302;8.120;2022-09-19T14:57:24;14.00;99.90
19044;DHT22;9654;52.302;8.120;2022-09-19T14:59:51;13.90;99.90
19044;DHT22;9654;52.302;8.120;2022-09-19T15:02:22;13.90;99.90
19044;DHT22;9654;52.302;8.120;2022-09-19T15:04:51;14.10;99.90
19044;DHT22;9654;52.302;8.120;2022-09-19T15:07:26;14.20;99.90
19044;DHT22;9654;52.302;8.120;2022-09-19T15:09:53;14.40;99.90
19044;DHT22;9654;52.302;8.120;2022-09-19T15:12:22;14.40;99.90
19044;DHT22;9654;52.302;8.120;2022-09-19T15:14:50;14.30;99.90
19044;DHT22;9654;52.302;8.120;2022-09-19T15:17:18;14.10;99.90
19044;DHT22;9654;52.302;8.120;2022-09-19T15:19:47;14.00;99.90
19044;DHT22;9654;52.302;8.120;2022-09-19T15:22:27;14.00;99.90
19044;DHT22;9654;52.302;8.120;2022-09-19T15:24:59;13.90;99.90
19044;DHT22;9654;52.302;8.120;2022-09-19T15:27:28;13.80;99.90
19044;DHT22;9654;52.302;8.120;2022-09-19T15:30:06;13.70;99.90
19044;DHT22;9654;52.302;8.120;2022-09-19T15:32:33;13.80;99.90
19044;DHT22;9654;52.302;8.120;2022-09-19T15:35:02;14.00;99.90
19044;DHT22;9654;52.302;8.120;2022-09-19T15:37:30;14.20;99.90
19044;DHT22;9654;52.302;8.120;2022-09-19T15:39:58;14.30;99.90
19044;DHT22;9654;52.302;8.120;2022-09-19T15:42:26;14.30;99.90
19044;DHT22;9654;52.302;8.120;2022-09-19T15:44:55;14.20;99.90
19044;DHT22;9654;52.302;8.120;2022-09-19T15:47:28;14.10;99.90
19044;DHT22;9654;52.302;8.120;2022-09-19T15:49:57;13.90;99.90
19044;DHT22;9654;52.302;8.120;2022-09-19T15:52:28;13.60;99.90
19044;DHT22;9654;52.302;8.120;2022-09-19T15:54:57;13.50;99.90
19044;DHT22;9654;52.302;8.120;2022-09-19T15:57:26;13.40;99.90
19044;DHT22;9654;52.302;8.120;2022-09-19T15:59:59;13.30;99.90
19044;DHT22;9654;52.302;8.120;2022-09-19T16:02:30;13.20;99.90
19044;DHT22;9654;52.302;8.120;2022-09-19T16:05:12;13.10;99.90
19044;DHT22;9654;52.302;8.120;2022-09-19T16:07:41;13.10;99.90
19044;DHT22;9654;52.302;8.120;2022-09-19T16:10:35;13.00;99.90
19044;DHT22;9654;52.302;8.120;2022-09-19T16:13:03;12.90;99.90
19044;DHT22;9654;52.302;8.120;2022-09-19T16:15:34;12.70;99.90
19044;DHT22;9654;52.302;8.120;2022-09-19T16:18:14;12.50;99.90
19044;DHT22;9654;52.302;8.120;2022-09-19T16:23:22;12.30;99.90
19044;DHT22;9654;52.302;8.120;2022-09-19T16:25:54;12.20;99.90
19044;DHT22;9654;52.302;8.120;2022-09-19T16:28:26;12.20;99.90
19044;DHT22;9654;52.302;8.120;2022-09-19T16:30:57;12.20;99.90
19044;DHT22;9654;52.302;8.120;2022-09-19T16:33:32;12.10;99.90
19044;DHT22;9654;52.302;8.120;2022-09-19T16:36:00;12.10;99.90
19044;DHT22;9654;52.302;8.120;2022-09-19T16:38:27;12.10;99.90
19044;DHT22;9654;52.302;8.120;2022-09-19T16:40:57;12.20;99.90